Time;durP1;ratioP1;P1;durP2;ratioP2;P2;SDS_P1;SDS_P2;PMS_P1;PMS_P2;Temp;Humidity;BMP_temperature;BMP_pressure;BME280_temperature;BME280_humidity;BME280_pressure;Samples;Min_cycle;Max_cycle;Signal;HPM_P1;HPM_P2
2022/03/24 00:00:16;;;;;;;29.03;17.47;;;7.20;70.00;;;;;;4998029;28;20831;-78
2022/03/24 00:02:43;;;;;;;31.07;19.70;;;7.10;68.90;;;;;;4999814;28;20519;-78
2022/03/24 00:05:11;;;;;;;29.02;18.55;;;7.10;70.70;;;;;;4998191;28;20438;-77
2022/03/24 00:07:37;;;;;;;33.80;21.30;;;6.90;91.60;;;;;;4999041;28;20213;-77
2022/03/24 00:10:05;;;;;;;28.35;19.02;;;7.10;70.30;;;;;;4996581;28;20499;-77
2022/03/24 00:12:34;;;;;;;30.00;18.57;;;7.10;70.70;;;;;;4996280;28;20246;-76
2022/03/24 00:15:01;;;;;;;29.70;19.60;;;7.10;70.70;;;;;;4998448;28;20696;-78
2022/03/24 00:17:27;;;;;;;31.95;20.13;;;7.10;70.90;;;;;;4998192;28;20354;-77
2022/03/24 00:19:54;;;;;;;32.33;20.00;;;7.10;72.00;;;;;;4997411;28;20700;-77
2022/03/24 00:22:20;;;;;;;32.27;20.87;;;7.10;71.80;;;;;;5003139;28;20272;-77
2022/03/24 00:24:47;;;;;;;36.95;19.60;;;7.10;72.60;;;;;;5001802;28;20461;-77
2022/03/24 00:27:14;;;;;;;34.13;19.08;;;7.00;73.20;;;;;;5001805;28;20203;-77
2022/03/24 00:29:42;;;;;;;31.10;21.27;;;6.90;74.30;;;;;;4999705;28;20226;-77
2022/03/24 00:32:10;;;;;;;32.37;19.50;;;6.80;77.40;;;;;;5015153;23;20257;-81
2022/03/24 00:34:36;;;;;;;28.75;18.90;;;6.80;80.80;;;;;;5005967;28;20430;-80
2022/03/24 00:37:04;;;;;;;35.53;19.93;;;6.70;81.80;;;;;;5008286;28;20205;-80
2022/03/24 00:39:33;;;;;;;26.48;19.10;;;6.70;85.70;;;;;;5013643;28;20944;-79
2022/03/24 00:42:00;;;;;;;34.10;21.30;;;6.70;82.10;;;;;;5010457;28;20287;-81
2022/03/24 00:44:27;;;;;;;34.13;21.50;;;6.70;82.70;;;;;;5004313;28;20205;-81
2022/03/24 00:46:55;;;;;;;35.03;20.27;;;6.70;83.60;;;;;;5003071;28;20267;-81
2022/03/24 00:49:22;;;;;;;35.10;20.03;;;6.70;85.30;;;;;;5004082;28;20207;-81
2022/03/24 00:51:49;;;;;;;34.07;19.80;;;6.70;85.50;;;;;;5004163;28;20839;-80
2022/03/24 00:54:16;;;;;;;31.58;20.38;;;6.70;85.30;;;;;;5001050;28;20448;-79
2022/03/24 00:56:43;;;;;;;30.63;21.23;;;6.70;85.40;;;;;;4998568;28;20209;-80
2022/03/24 00:59:10;;;;;;;34.30;20.50;;;6.70;86.10;;;;;;5000104;28;20225;-80
2022/03/24 01:01:38;;;;;;;38.85;20.60;;;6.70;88.30;;;;;;4999810;28;20284;-80
2022/03/24 01:04:07;;;;;;;34.30;22.27;;;6.60;88.60;;;;;;5002034;28;20214;-80
2022/03/24 01:06:34;;;;;;;33.53;19.25;;;6.50;90.30;;;;;;5000501;28;20434;-80
2022/03/24 01:09:00;;;;;;;31.60;19.48;;;6.50;90.80;;;;;;5000803;28;20256;-81
2022/03/24 01:11:27;;;;;;;29.13;18.73;;;6.50;99.90;;;;;;5000051;28;20252;-80
2022/03/24 01:13:53;;;;;;;33.08;21.60;;;6.50;91.40;;;;;;5001500;28;20208;-80
2022/03/24 01:16:22;;;;;;;32.08;19.88;;;6.40;92.00;;;;;;5001002;28;20201;-80
2022/03/24 01:18:49;;;;;;;35.67;21.20;;;6.40;92.70;;;;;;4998597;28;20281;-79
2022/03/24 01:21:17;;;;;;;34.95;22.13;;;6.30;93.10;;;;;;4999537;28;20263;-78
2022/03/24 01:23:44;;;;;;;33.55;20.70;;;6.30;94.20;;;;;;4996029;28;20260;-78
2022/03/24 01:26:11;;;;;;;37.58;20.42;;;6.30;96.80;;;;;;4998822;28;20209;-77
2022/03/24 01:28:40;;;;;;;35.30;19.85;;;6.30;95.80;;;;;;4999096;28;20201;-78
2022/03/24 01:31:08;;;;;;;35.08;21.55;;;6.30;98.70;;;;;;5005204;28;20238;-78
2022/03/24 01:33:37;;;;;;;31.55;20.33;;;6.30;99.70;;;;;;5009826;28;20201;-78
2022/03/24 01:36:04;;;;;;;34.80;20.05;;;6.20;98.50;;;;;;5006732;28;20684;-78
2022/03/24 01:38:32;;;;;;;33.92;21.65;;;6.20;99.10;;;;;;5008835;28;20225;-78
2022/03/24 01:40:59;;;;;;;37.70;20.50;;;6.20;98.70;;;;;;5006587;28;20233;-79
2022/03/24 01:43:26;;;;;;;31.17;18.63;;;6.20;99.20;;;;;;4999077;28;20324;-79
2022/03/24 01:45:53;;;;;;;32.58;20.83;;;6.10;99.20;;;;;;4999256;28;20245;-80
2022/03/24 01:48:21;;;;;;;36.45;21.42;;;6.10;99.80;;;;;;5003266;28;20676;-79
2022/03/24 01:50:47;;;;;;;29.85;20.13;;;6.10;99.90;;;;;;5000307;28;20787;-79
2022/03/24 01:53:14;;;;;;;36.03;21.00;;;6.10;99.90;;;;;;4999415;28;20204;-79
2022/03/24 01:55:43;;;;;;;29.85;20.00;;;6.10;99.90;;;;;;5002561;28;20232;-78
2022/03/24 01:58:11;;;;;;;34.45;21.88;;;6.10;99.90;;;;;;5006113;28;20226;-78
2022/03/24 02:00:38;;;;;;;39.38;22.88;;;6.10;99.90;;;;;;5003323;28;20228;-78
2022/03/24 02:03:05;;;;;;;33.95;20.10;;;6.00;99.90;;;;;;5003143;28;20263;-79
2022/03/24 02:05:33;;;;;;;41.47;21.50;;;6.10;99.90;;;;;;5001065;28;20205;-78
2022/03/24 02:08:02;;;;;;;41.58;23.45;;;6.00;99.90;;;;;;5000988;28;20205;-78
2022/03/24 02:10:29;;;;;;;34.15;20.50;;;5.90;99.90;;;;;;4997482;28;20220;-79
2022/03/24 02:12:58;;;;;;;44.17;23.98;;;5.90;99.90;;;;;;4997231;28;20215;-78
2022/03/24 02:15:24;;;;;;;35.05;21.77;;;5.90;99.90;;;;;;4996569;28;20236;-78
2022/03/24 02:17:51;;;;;;;43.67;22.83;;;5.80;99.90;;;;;;4996643;28;20255;-78
2022/03/24 02:20:19;;;;;;;37.20;21.55;;;5.90;1.00;;;;;;4996400;28;20209;-78
2022/03/24 02:22:47;;;;;;;42.65;24.65;;;5.70;99.90;;;;;;4996418;28;20628;-79
2022/03/24 02:25:14;;;;;;;36.15;22.92;;;5.70;99.90;;;;;;4997394;28;20260;-78
2022/03/24 02:27:41;;;;;;;34.15;21.60;;;5.70;99.90;;;;;;4996763;28;20213;-78
2022/03/24 02:30:10;;;;;;;41.95;22.92;;;5.80;99.90;;;;;;4998446;28;20205;-78
2022/03/24 02:32:37;;;;;;;42.70;23.02;;;5.70;99.90;;;;;;4997793;28;20218;-79
2022/03/24 02:35:04;;;;;;;33.83;22.23;;;5.60;99.90;;;;;;4997323;28;20251;-78
2022/03/24 02:37:30;;;;;;;38.75;23.70;;;5.60;99.90;;;;;;4997333;28;20201;-79
2022/03/24 02:40:00;;;;;;;41.10;24.60;;;5.60;99.90;;;;;;4998420;28;20217;-78
2022/03/24 02:42:29;;;;;;;36.50;23.60;;;5.60;1.00;;;;;;4998457;28;20243;-79
2022/03/24 02:44:58;;;;;;;39.40;24.08;;;5.30;1.00;;;;;;4997262;28;20205;-78
2022/03/24 02:47:25;;;;;;;42.28;23.80;;;5.50;1.00;;;;;;4995622;28;20252;-78
2022/03/24 02:49:54;;;;;;;35.97;22.25;;;5.50;1.00;;;;;;4995820;28;20208;-78
2022/03/24 02:52:21;;;;;;;35.65;23.02;;;5.40;1.00;;;;;;4996058;28;20229;-78
2022/03/24 02:54:47;;;;;;;38.05;23.23;;;5.50;1.00;;;;;;4995165;28;20259;-79
2022/03/24 02:57:16;;;;;;;34.05;22.15;;;5.30;10.30;;;;;;4994792;28;20295;-78
2022/03/24 02:59:42;;;;;;;37.97;23.98;;;5.40;99.90;;;;;;4994741;28;20221;-78
2022/03/24 03:02:13;;;;;;;38.13;25.27;;;5.50;99.90;;;;;;4994933;28;20217;-79
2022/03/24 03:04:41;;;;;;;33.83;22.20;;;5.30;99.90;;;;;;4996330;28;20194;-78
2022/03/24 03:07:08;;;;;;;37.33;23.48;;;5.10;99.90;;;;;;4997801;28;20204;-77
2022/03/24 03:09:37;;;;;;;41.00;24.25;;;5.40;99.90;;;;;;4997375;28;20680;-77
2022/03/24 03:12:04;;;;;;;40.08;23.77;;;5.30;99.90;;;;;;4995654;28;20252;-78
2022/03/24 03:14:32;;;;;;;39.45;23.70;;;5.30;99.90;;;;;;4995402;28;20580;-79
2022/03/24 03:17:00;;;;;;;47.97;26.95;;;5.20;99.90;;;;;;4995146;28;20236;-79
2022/03/24 03:19:28;;;;;;;40.05;25.73;;;5.00;99.90;;;;;;4995291;28;20256;-79
2022/03/24 03:21:55;;;;;;;39.47;23.00;;;5.10;99.90;;;;;;4994952;28;20420;-78
2022/03/24 03:24:22;;;;;;;41.83;23.65;;;5.20;99.90;;;;;;4996912;28;20240;-79
2022/03/24 03:26:50;;;;;;;43.65;26.23;;;5.20;99.90;;;;;;4997051;28;20205;-80
2022/03/24 03:29:18;;;;;;;37.55;23.50;;;5.20;99.90;;;;;;4997991;28;20271;-79
2022/03/24 03:31:46;;;;;;;41.80;23.65;;;5.10;99.90;;;;;;4998676;28;20239;-78
2022/03/24 03:34:14;;;;;;;43.40;24.98;;;5.10;99.90;;;;;;4996581;28;20205;-79
2022/03/24 03:36:42;;;;;;;41.70;23.50;;;5.10;99.90;;;;;;4994878;28;20201;-78
2022/03/24 03:39:09;;;;;;;38.45;23.80;;;5.00;99.90;;;;;;4995199;28;20240;-78
2022/03/24 03:41:39;;;;;;;37.55;21.17;;;4.90;99.90;;;;;;4994625;28;20363;-78
2022/03/24 03:44:07;;;;;;;40.15;22.88;;;4.90;99.90;;;;;;4994870;28;20208;-79
2022/03/24 03:46:33;;;;;;;38.03;23.42;;;5.00;99.90;;;;;;4995676;28;20205;-79
2022/03/24 03:49:01;;;;;;;37.65;23.85;;;4.90;99.90;;;;;;4997887;28;20278;-78
2022/03/24 03:51:29;;;;;;;42.42;22.52;;;4.90;99.90;;;;;;4998210;28;20236;-78
2022/03/24 03:53:56;;;;;;;46.20;23.67;;;4.80;99.90;;;;;;4998100;28;20560;-78
2022/03/24 03:56:23;;;;;;;41.35;22.88;;;4.70;99.90;;;;;;4998252;28;20240;-78
2022/03/24 03:58:50;;;;;;;35.55;21.58;;;4.70;99.90;;;;;;4997800;28;20745;-78
2022/03/24 04:01:17;;;;;;;34.65;21.00;;;4.60;99.90;;;;;;4997967;28;20229;-79
2022/03/24 04:03:44;;;;;;;38.67;24.10;;;4.80;99.90;;;;;;4997897;28;20237;-78
2022/03/24 04:06:14;;;;;;;38.67;22.90;;;4.60;99.90;;;;;;4997591;28;20263;-78
2022/03/24 04:08:42;;;;;;;39.42;23.95;;;4.40;99.90;;;;;;4998396;28;20209;-78
2022/03/24 04:11:10;;;;;;;34.97;22.58;;;4.60;99.90;;;;;;4997941;28;20321;-79
2022/03/24 04:13:38;;;;;;;37.85;22.80;;;4.60;99.90;;;;;;4997796;28;20612;-78
2022/03/24 04:16:06;;;;;;;34.22;20.75;;;4.50;99.90;;;;;;4997761;28;20205;-78
2022/03/24 04:18:33;;;;;;;40.17;25.45;;;4.60;99.90;;;;;;4997820;28;20638;-80
2022/03/24 04:20:59;;;;;;;38.40;24.55;;;4.60;99.90;;;;;;4999564;28;20221;-79
2022/03/24 04:23:27;;;;;;;38.92;23.60;;;4.50;99.90;;;;;;5001930;28;20201;-78
2022/03/24 04:25:54;;;;;;;38.28;23.75;;;4.40;99.90;;;;;;5006447;28;20209;-78
2022/03/24 04:28:21;;;;;;;40.10;25.17;;;4.40;99.90;;;;;;5011523;28;20229;-79
2022/03/24 04:30:47;;;;;;;41.33;25.73;;;4.40;99.90;;;;;;5013903;28;20233;-78
2022/03/24 04:33:15;;;;;;;42.53;23.73;;;4.40;99.90;;;;;;5010561;28;20200;-78
2022/03/24 04:35:41;;;;;;;37.78;24.25;;;4.30;99.90;;;;;;5010629;28;20680;-78
2022/03/24 04:38:08;;;;;;;47.05;25.80;;;4.40;99.90;;;;;;5010814;28;20201;-77
2022/03/24 04:40:37;;;;;;;47.42;26.42;;;4.50;99.90;;;;;;5002626;28;20231;-77
2022/03/24 04:43:04;;;;;;;40.55;26.30;;;4.50;99.90;;;;;;5001675;28;20212;-78
2022/03/24 04:45:33;;;;;;;39.13;24.35;;;4.50;99.90;;;;;;5001443;28;20296;-78
2022/03/24 04:48:00;;;;;;;42.67;26.65;;;4.50;99.90;;;;;;4999872;28;20240;-78
2022/03/24 04:50:27;;;;;;;41.83;25.45;;;4.40;99.90;;;;;;5002291;28;20316;-79
2022/03/24 04:52:54;;;;;;;41.97;25.08;;;4.40;99.90;;;;;;5002138;28;20213;-79
2022/03/24 04:55:21;;;;;;;43.00;26.08;;;4.30;99.90;;;;;;5000172;28;20205;-79
2022/03/24 04:57:49;;;;;;;50.97;27.05;;;4.30;99.90;;;;;;5009650;28;20209;-79
2022/03/24 05:00:18;;;;;;;38.35;24.63;;;4.30;99.90;;;;;;5008850;28;20256;-78
2022/03/24 05:02:45;;;;;;;44.97;26.55;;;4.20;99.90;;;;;;5008936;28;20272;-78
2022/03/24 05:05:11;;;;;;;43.90;26.65;;;4.20;99.90;;;;;;5010773;28;20208;-78
2022/03/24 05:07:39;;;;;;;43.00;24.67;;;4.10;99.90;;;;;;5008762;28;20726;-78
2022/03/24 05:10:07;;;;;;;48.30;27.35;;;4.30;99.90;;;;;;5005778;28;20201;-79
2022/03/24 05:12:34;;;;;;;41.08;25.30;;;4.10;99.90;;;;;;5009261;28;20212;-79
2022/03/24 05:15:02;;;;;;;37.17;25.48;;;4.10;99.90;;;;;;5012368;28;20217;-79
2022/03/24 05:17:28;;;;;;;39.40;25.95;;;4.10;1.00;;;;;;5005941;28;20601;-78
2022/03/24 05:19:55;;;;;;;44.95;26.08;;;4.10;99.90;;;;;;5005888;28;20209;-78
2022/03/24 05:22:21;;;;;;;42.45;27.13;;;4.30;99.90;;;;;;5011527;28;20284;-79
2022/03/24 05:24:48;;;;;;;38.67;24.98;;;4.30;1.00;;;;;;5014043;28;20268;-78
2022/03/24 05:27:15;;;;;;;50.55;28.35;;;4.40;99.90;;;;;;5009388;28;20205;-79
2022/03/24 05:29:41;;;;;;;45.17;26.52;;;4.40;99.90;;;;;;5004843;28;20197;-78
2022/03/24 05:32:10;;;;;;;43.28;26.95;;;4.40;1.00;;;;;;5000189;28;20672;-78
2022/03/24 05:34:37;;;;;;;44.72;28.80;;;4.40;99.90;;;;;;5001413;28;20213;-79
2022/03/24 05:37:04;;;;;;;42.03;26.88;;;4.40;99.90;;;;;;5001267;28;20205;-79
2022/03/24 05:39:30;;;;;;;44.78;26.80;;;4.40;99.90;;;;;;5000699;28;20279;-79
2022/03/24 05:41:58;;;;;;;43.83;26.20;;;4.40;99.90;;;;;;4999018;28;20233;-78
2022/03/24 05:44:25;;;;;;;45.83;27.52;;;4.40;1.00;;;;;;5000314;28;20209;-78
2022/03/24 05:46:51;;;;;;;48.40;27.98;;;4.40;99.90;;;;;;5000378;28;20244;-78
2022/03/24 05:49:21;;;;;;;45.45;27.83;;;4.30;99.90;;;;;;5000138;28;20205;-78
2022/03/24 05:51:49;;;;;;;47.13;27.20;;;4.40;99.90;;;;;;5003816;28;20252;-78
2022/03/24 05:54:18;;;;;;;44.28;26.13;;;4.40;99.90;;;;;;5002549;28;20295;-78
2022/03/24 05:56:45;;;;;;;50.00;29.27;;;4.70;1.00;;;;;;4999529;28;20252;-78
2022/03/24 05:59:12;;;;;;;43.00;27.17;;;4.50;99.90;;;;;;4999561;28;20204;-78
2022/03/24 06:01:40;;;;;;;43.60;28.48;;;4.60;99.90;;;;;;4999683;28;20658;-78
2022/03/24 06:04:07;;;;;;;43.97;27.40;;;4.60;99.90;;;;;;4998874;28;20605;-79
2022/03/24 06:06:37;;;;;;;46.65;28.30;;;4.20;1.00;;;;;;4999854;28;20201;-78
2022/03/24 06:09:05;;;;;;;53.63;31.15;;;4.60;99.90;;;;;;4999274;28;20201;-78
2022/03/24 06:11:35;;;;;;;52.67;29.05;;;4.70;1.00;;;;;;4997946;28;20661;-78
2022/03/24 06:14:01;;;;;;;46.85;29.92;;;4.80;99.90;;;;;;4997496;28;20560;-79
2022/03/24 06:16:28;;;;;;;49.55;29.20;;;4.80;92.20;;;;;;4997220;28;20205;-79
2022/03/24 06:18:54;;;;;;;52.17;28.40;;;4.90;99.90;;;;;;4996746;28;20564;-80
2022/03/24 06:21:21;;;;;;;46.00;28.90;;;4.90;99.90;;;;;;4997488;28;20225;-79
2022/03/24 06:23:50;;;;;;;44.80;26.40;;;5.00;99.90;;;;;;5001956;28;20209;-79
2022/03/24 06:26:19;;;;;;;42.17;26.80;;;5.10;99.90;;;;;;5001020;28;20205;-78
2022/03/24 06:28:45;;;;;;;47.00;27.42;;;5.20;99.90;;;;;;4998696;28;20225;-78
2022/03/24 06:31:12;;;;;;;45.05;28.23;;;5.20;99.90;;;;;;5021849;23;20240;-77
2022/03/24 06:33:39;;;;;;;49.22;28.75;;;5.20;99.90;;;;;;4997038;28;20285;-78
2022/03/24 06:36:08;;;;;;;48.60;29.88;;;5.20;99.90;;;;;;4995091;28;20300;-78
2022/03/24 06:38:37;;;;;;;47.92;28.75;;;5.30;99.90;;;;;;4997198;28;20207;-79
2022/03/24 06:41:06;;;;;;;52.75;30.45;;;5.30;99.90;;;;;;4995010;28;20639;-77
2022/03/24 06:43:33;;;;;;;45.75;27.35;;;5.40;99.90;;;;;;4994637;28;20303;-77
2022/03/24 06:45:59;;;;;;;55.47;29.35;;;5.50;99.90;;;;;;4993924;28;20288;-77
2022/03/24 06:48:26;;;;;;;48.47;28.25;;;5.50;99.90;;;;;;4995687;28;20228;-77
2022/03/24 06:50:52;;;;;;;46.47;29.55;;;5.60;99.90;;;;;;4996249;28;20220;-77
2022/03/24 06:53:19;;;;;;;46.35;28.50;;;5.60;99.90;;;;;;4996105;28;20236;-78
2022/03/24 06:55:45;;;;;;;50.00;29.35;;;5.60;99.90;;;;;;4996843;28;20228;-78
2022/03/24 06:58:13;;;;;;;49.50;28.38;;;5.70;99.90;;;;;;4994762;28;20291;-78
2022/03/24 07:00:40;;;;;;;50.83;29.10;;;5.70;99.90;;;;;;4994538;28;20253;-77
2022/03/24 07:03:07;;;;;;;48.28;30.10;;;5.80;99.90;;;;;;5004230;28;20373;-78
2022/03/24 07:05:33;;;;;;;49.05;28.23;;;5.90;99.90;;;;;;5003934;28;20271;-78
2022/03/24 07:08:02;;;;;;;42.70;26.73;;;5.90;99.90;;;;;;4997341;28;20201;-77
2022/03/24 07:10:28;;;;;;;52.10;29.63;;;6.10;99.90;;;;;;4998877;28;20213;-77
2022/03/24 07:12:55;;;;;;;52.25;30.70;;;6.00;99.90;;;;;;4998637;28;20252;-77
2022/03/24 07:15:25;;;;;;;48.30;29.05;;;6.10;99.90;;;;;;4996613;28;20228;-78
2022/03/24 07:17:52;;;;;;;45.05;26.50;;;6.10;99.90;;;;;;4995035;28;20228;-77
2022/03/24 07:20:18;;;;;;;47.50;29.42;;;6.20;99.90;;;;;;4994121;28;20336;-78
2022/03/24 07:22:47;;;;;;;52.72;29.48;;;6.30;99.90;;;;;;4998816;28;20225;-78
2022/03/24 07:25:14;;;;;;;48.67;30.50;;;6.40;99.90;;;;;;4998654;28;20205;-78
2022/03/24 07:27:42;;;;;;;53.22;30.77;;;6.50;99.90;;;;;;4998138;28;20205;-77
2022/03/24 07:30:10;;;;;;;48.25;29.20;;;6.50;99.90;;;;;;4997984;28;20217;-78
2022/03/24 07:32:38;;;;;;;53.65;31.55;;;6.60;99.90;;;;;;4997840;28;20243;-77
2022/03/24 07:35:07;;;;;;;47.58;29.13;;;6.70;99.90;;;;;;4999197;28;20209;-78
2022/03/24 07:37:34;;;;;;;47.05;27.38;;;6.60;99.90;;;;;;4998770;28;20228;-77
2022/03/24 07:40:01;;;;;;;45.58;28.75;;;6.80;99.90;;;;;;4999295;28;20229;-77
2022/03/24 07:42:28;;;;;;;46.25;28.63;;;6.80;99.90;;;;;;5000160;28;20257;-76
2022/03/24 07:44:55;;;;;;;49.63;28.15;;;7.50;99.90;;;;;;4999234;28;20579;-78
2022/03/24 07:47:22;;;;;;;50.78;30.67;;;7.00;99.90;;;;;;5000177;28;20572;-76
2022/03/24 07:49:50;;;;;;;50.65;29.63;;;7.10;99.90;;;;;;5000583;28;20212;-78
2022/03/24 07:52:17;;;;;;;50.35;29.52;;;7.20;99.90;;;;;;5000188;28;20225;-77
2022/03/24 07:54:57;;;;;;;44.22;29.45;;;7.10;99.90;;;;;;5001937;28;20315;-78
2022/03/24 07:57:24;;;;;;;54.75;29.42;;;7.30;99.90;;;;;;5000459;28;20217;-78
2022/03/24 07:59:51;;;;;;;50.65;30.20;;;7.40;99.90;;;;;;5003151;28;20204;-77
2022/03/24 08:02:18;;;;;;;52.30;30.67;;;7.50;99.90;;;;;;5003710;28;20678;-79
2022/03/24 08:04:45;;;;;;;46.57;29.60;;;7.50;99.90;;;;;;5002876;28;20210;-76
2022/03/24 08:07:13;;;;;;;47.80;31.30;;;7.60;99.90;;;;;;5003425;28;20968;-78
2022/03/24 08:09:39;;;;;;;47.77;29.17;;;7.60;99.90;;;;;;5002879;28;20429;-78
2022/03/24 08:12:08;;;;;;;47.50;29.85;;;8.10;99.90;;;;;;5001256;28;20497;-78
2022/03/24 08:14:35;;;;;;;45.87;29.10;;;8.10;99.90;;;;;;5002434;28;20629;-79
2022/03/24 08:17:02;;;;;;;46.93;29.83;;;8.60;99.90;;;;;;4999576;28;20449;-78
2022/03/24 08:19:28;;;;;;;53.27;30.90;;;8.80;99.90;;;;;;4998790;28;20444;-77
2022/03/24 08:21:55;;;;;;;46.83;29.20;;;8.60;99.90;;;;;;4998442;28;20642;-77
2022/03/24 08:24:23;;;;;;;43.80;29.73;;;8.50;99.90;;;;;;4997840;28;20418;-77
2022/03/24 08:26:49;;;;;;;52.50;30.40;;;8.40;99.90;;;;;;4999689;28;20462;-77
2022/03/24 08:29:16;;;;;;;52.57;31.40;;;8.30;99.90;;;;;;4997791;28;20489;-77
2022/03/24 08:31:43;;;;;;;59.80;32.67;;;8.40;99.90;;;;;;4998135;28;20510;-76
2022/03/24 08:34:09;;;;;;;47.30;29.90;;;8.50;99.90;;;;;;4999207;28;20471;-77
2022/03/24 08:36:36;;;;;;;46.03;29.80;;;8.60;99.90;;;;;;5000090;28;20457;-77
2022/03/24 08:39:02;;;;;;;47.33;28.97;;;8.70;99.90;;;;;;5001435;28;20457;-79
2022/03/24 08:41:31;;;;;;;47.40;30.03;;;8.70;99.90;;;;;;5001534;28;20515;-79
2022/03/24 08:43:57;;;;;;;51.93;30.10;;;8.80;99.90;;;;;;5001673;28;20450;-77
2022/03/24 08:46:26;;;;;;;50.93;29.03;;;9.00;99.90;;;;;;5002245;28;20482;-78
2022/03/24 08:48:53;;;;;;;48.73;29.00;;;9.10;99.90;;;;;;5001552;28;21023;-77
2022/03/24 08:51:20;;;;;;;47.10;28.33;;;9.20;99.90;;;;;;5001746;28;20477;-78
2022/03/24 08:53:47;;;;;;;47.90;28.50;;;9.20;99.90;;;;;;5002040;28;20429;-77
2022/03/24 08:56:14;;;;;;;50.53;26.90;;;9.20;99.90;;;;;;5001666;28;20455;-77
2022/03/24 08:58:43;;;;;;;49.10;29.13;;;9.30;99.90;;;;;;5001313;28;20480;-76
2022/03/24 09:01:10;;;;;;;59.67;29.93;;;9.40;99.90;;;;;;4999831;28;20467;-78
2022/03/24 09:03:37;;;;;;;49.53;28.40;;;9.40;99.90;;;;;;5001786;28;20518;-78
2022/03/24 09:06:04;;;;;;;42.27;27.57;;;9.50;99.90;;;;;;5001104;28;20460;-78
2022/03/24 09:08:30;;;;;;;47.93;27.60;;;9.50;99.90;;;;;;5000905;28;20470;-78
2022/03/24 09:10:57;;;;;;;46.27;29.07;;;9.60;99.90;;;;;;4999893;28;20478;-78
2022/03/24 09:13:24;;;;;;;48.93;30.63;;;9.60;99.90;;;;;;4999857;28;20484;-79
2022/03/24 09:15:51;;;;;;;42.90;28.10;;;9.70;99.90;;;;;;5001864;28;20535;-79
2022/03/24 09:18:18;;;;;;;44.63;29.00;;;9.90;99.90;;;;;;5009771;28;20447;-78
2022/03/24 09:20:45;;;;;;;52.57;29.87;;;9.80;99.90;;;;;;5003159;28;20490;-78
2022/03/24 09:23:11;;;;;;;43.70;28.97;;;10.10;99.90;;;;;;4996455;28;20484;-78
2022/03/24 09:25:39;;;;;;;40.20;26.80;;;10.20;99.90;;;;;;4997963;28;20452;-78
2022/03/24 09:28:06;;;;;;;42.97;27.60;;;10.30;99.90;;;;;;4997568;28;20451;-77
2022/03/24 09:30:33;;;;;;;46.33;29.43;;;10.70;99.90;;;;;;4997187;28;20459;-79
2022/03/24 09:33:00;;;;;;;44.50;27.80;;;10.60;99.90;;;;;;4998530;28;20564;-78
2022/03/24 09:35:28;;;;;;;43.30;28.40;;;10.90;99.90;;;;;;4996568;28;20545;-79
2022/03/24 09:37:54;;;;;;;43.30;27.20;;;10.60;99.90;;;;;;5001067;28;20483;-79
2022/03/24 09:40:21;;;;;;;46.40;26.57;;;10.80;99.90;;;;;;4999231;28;20469;-79
2022/03/24 09:42:48;;;;;;;44.13;26.67;;;11.00;99.90;;;;;;4999082;28;20472;-79
2022/03/24 09:45:15;;;;;;;48.73;28.90;;;11.20;99.90;;;;;;5001727;28;20449;-79
2022/03/24 09:47:44;;;;;;;36.30;24.13;;;11.30;99.90;;;;;;5006131;28;20801;-78
2022/03/24 09:50:14;;;;;;;46.03;25.97;;;11.20;99.90;;;;;;5009278;28;20446;-78
2022/03/24 09:52:42;;;;;;;42.00;29.00;;;11.30;99.90;;;;;;5004250;28;20470;-78
2022/03/24 09:55:10;;;;;;;47.93;27.17;;;11.30;99.90;;;;;;5002029;28;20451;-79
2022/03/24 09:57:37;;;;;;;42.40;26.87;;;11.30;99.90;;;;;;5000312;28;20448;-79
2022/03/24 10:00:07;;;;;;;42.57;25.40;;;11.40;99.90;;;;;;5001364;28;20515;-79
2022/03/24 10:02:34;;;;;;;46.40;27.40;;;11.30;99.90;;;;;;5004886;28;20484;-78
2022/03/24 10:05:01;;;;;;;42.50;26.30;;;11.30;99.90;;;;;;5005497;28;20460;-78
2022/03/24 10:07:34;;;;;;;46.97;27.23;;;11.30;99.90;;;;;;5000464;28;20448;-80
2022/03/24 10:10:02;;;;;;;40.53;23.50;;;11.40;99.90;;;;;;5004626;28;20464;-77
2022/03/24 10:12:30;;;;;;;40.60;24.63;;;11.70;99.90;;;;;;5001885;28;20531;-79
2022/03/24 10:15:01;;;;;;;46.20;25.17;;;11.70;99.90;;;;;;5001204;28;20434;-78
2022/03/24 10:17:28;;;;;;;52.87;26.00;;;11.80;99.90;;;;;;5002614;28;20432;-78
2022/03/24 10:19:59;;;;;;;42.73;26.67;;;11.70;99.90;;;;;;5001105;28;20475;-79
2022/03/24 10:22:26;;;;;;;39.10;25.23;;;11.80;99.90;;;;;;4999320;28;20534;-78
2022/03/24 10:24:55;;;;;;;39.50;22.63;;;11.80;99.90;;;;;;5000093;28;20464;-78
2022/03/24 10:27:23;;;;;;;35.60;24.03;;;11.80;98.60;;;;;;5004279;28;20448;-77
2022/03/24 10:29:54;;;;;;;39.13;23.63;;;11.90;98.40;;;;;;4998650;28;20480;-77
2022/03/24 10:32:22;;;;;;;35.00;22.90;;;12.00;99.90;;;;;;4997959;28;20487;-78
2022/03/24 10:34:50;;;;;;;34.80;22.87;;;12.20;99.90;;;;;;4997995;28;20503;-77
2022/03/24 10:37:19;;;;;;;31.77;23.33;;;12.30;99.90;;;;;;4998743;28;20562;-78
2022/03/24 10:39:59;;;;;;;34.63;21.80;;;12.40;99.90;;;;;;4999570;28;20515;-78
2022/03/24 10:42:28;;;;;;;31.70;22.40;;;12.50;99.90;;;;;;4998523;28;20527;-78
2022/03/24 10:45:14;;;;;;;35.83;20.73;;;12.50;93.60;;;;;;5000572;28;20822;-80
2022/03/24 10:47:47;;;;;;;32.17;21.33;;;12.40;96.70;;;;;;4999951;28;20499;-77
2022/03/24 10:50:21;;;;;;;32.60;21.23;;;12.40;92.90;;;;;;4998583;28;20725;-79
2022/03/24 10:52:48;;;;;;;35.47;21.60;;;12.40;92.60;;;;;;4999730;28;20471;-80
2022/03/24 10:55:27;;;;;;;31.47;20.37;;;12.40;90.20;;;;;;4999572;28;20460;-79
2022/03/24 10:57:54;;;;;;;28.90;19.80;;;12.50;90.50;;;;;;5002693;28;20470;-79
2022/03/24 11:00:21;;;;;;;25.50;18.87;;;12.60;95.40;;;;;;5002005;28;20487;-78
2022/03/24 11:02:48;;;;;;;25.10;17.50;;;12.70;92.70;;;;;;5004335;28;20462;-78
2022/03/24 11:05:15;;;;;;;30.27;18.50;;;12.80;90.30;;;;;;5003056;28;20454;-78
2022/03/24 11:07:41;;;;;;;27.67;16.30;;;12.80;92.60;;;;;;5004584;28;20520;-78
2022/03/24 11:10:12;;;;;;;24.37;16.93;;;12.90;87.50;;;;;;5001358;28;20507;-78
2022/03/24 11:12:42;;;;;;;32.27;17.10;;;13.00;90.60;;;;;;5004596;28;20530;-78
2022/03/24 11:15:09;;;;;;;29.07;16.53;;;13.10;74.10;;;;;;5008483;28;20463;-77
2022/03/24 11:17:38;;;;;;;24.97;14.80;;;12.80;67.40;;;;;;5002616;28;20497;-77
2022/03/24 11:20:08;;;;;;;18.70;13.47;;;12.90;78.50;;;;;;5003376;28;20433;-79
2022/03/24 11:22:40;;;;;;;24.13;16.33;;;13.10;71.40;;;;;;5004602;28;20534;-78
2022/03/24 11:25:08;;;;;;;22.57;16.23;;;13.00;66.60;;;;;;5009743;28;20444;-78
2022/03/24 11:27:34;;;;;;;22.47;15.33;;;13.00;74.10;;;;;;5003170;28;20425;-77
2022/03/24 11:30:05;;;;;;;22.43;14.47;;;13.20;81.80;;;;;;5002542;28;20448;-78
2022/03/24 11:32:34;;;;;;;19.83;15.20;;;13.40;71.10;;;;;;5001559;28;20534;-78
2022/03/24 11:35:02;;;;;;;21.03;14.63;;;13.30;63.80;;;;;;5001759;28;20495;-79
2022/03/24 11:37:29;;;;;;;23.63;16.60;;;13.20;64.20;;;;;;5001623;28;20448;-78
2022/03/24 11:40:06;;;;;;;25.40;14.77;;;13.30;61.90;;;;;;5002132;28;20452;-78
2022/03/24 11:42:35;;;;;;;24.77;12.23;;;13.60;85.30;;;;;;5000998;28;21130;-78
2022/03/24 11:45:09;;;;;;;21.60;12.90;;;13.60;66.90;;;;;;5001935;28;20890;-78
2022/03/24 11:47:56;;;;;;;18.77;11.73;;;13.50;56.70;;;;;;5002454;28;20833;-78
2022/03/24 11:50:44;;;;;;;19.17;12.20;;;13.60;70.60;;;;;;5002762;28;20972;-77
2022/03/24 11:53:16;;;;;;;19.90;11.67;;;13.70;65.00;;;;;;5002612;28;20828;-77
2022/03/24 11:56:04;;;;;;;23.20;12.40;;;13.80;59.80;;;;;;4999907;28;20455;-77
2022/03/24 11:58:35;;;;;;;17.17;11.73;;;13.80;66.90;;;;;;5000132;28;20475;-78
2022/03/24 12:01:25;;;;;;;19.30;13.00;;;13.90;63.50;;;;;;5000287;28;20479;-77
2022/03/24 12:04:00;;;;;;;19.77;12.90;;;13.90;55.10;;;;;;4998901;28;20464;-77
2022/03/24 12:06:54;;;;;;;16.40;12.97;;;14.10;58.60;;;;;;4998084;28;20446;-77
2022/03/24 12:09:28;;;;;;;23.10;14.53;;;14.10;62.80;;;;;;4997654;28;20919;-77
2022/03/24 12:12:09;;;;;;;25.00;12.83;;;14.10;61.50;;;;;;4999588;28;20463;-78
2022/03/24 12:14:38;;;;;;;17.30;12.17;;;14.20;55.40;;;;;;4998588;28;20514;-79
2022/03/24 12:17:16;;;;;;;19.77;11.87;;;14.20;59.10;;;;;;4999503;28;20480;-79
2022/03/24 12:19:47;;;;;;;26.20;13.30;;;14.30;55.50;;;;;;4998883;28;20428;-79
2022/03/24 12:22:44;;;;;;;15.20;11.53;;;14.30;64.50;;;;;;5000944;28;20551;-78
2022/03/24 12:25:36;;;;;;;21.93;12.57;;;14.40;55.00;;;;;;5000260;28;20453;-77
2022/03/24 12:28:09;;;;;;;18.57;11.23;;;14.40;57.30;;;;;;4999631;28;20528;-78
2022/03/24 12:30:54;;;;;;;17.23;11.00;;;14.50;70.10;;;;;;5000979;28;20431;-78
2022/03/24 12:33:34;;;;;;;16.00;12.00;;;14.40;51.20;;;;;;5007244;28;20440;-78
2022/03/24 12:36:02;;;;;;;21.70;12.00;;;14.30;49.40;;;;;;5020552;23;20531;-79
2022/03/24 12:38:45;;;;;;;21.90;11.43;;;14.40;54.60;;;;;;5006269;28;20440;-79
2022/03/24 12:41:21;;;;;;;20.57;11.37;;;14.20;46.80;;;;;;5003717;28;20460;-79